createdAt,value
2022-08-30T00:01:46.424Z,10.30
2022-08-30T00:04:32.993Z,10.67
2022-08-30T00:07:20.029Z,11.63
2022-08-30T00:10:08.017Z,10.83
2022-08-30T00:12:57.015Z,10.67
2022-08-30T00:15:44.095Z,13.87
2022-08-30T00:18:31.304Z,10.20
2022-08-30T00:21:18.737Z,11.87
2022-08-30T00:24:05.961Z,11.83
2022-08-30T00:26:53.444Z,10.07
2022-08-30T00:29:42.749Z,11.47
2022-08-30T00:32:29.353Z,10.57
2022-08-30T00:35:20.675Z,11.13
2022-08-30T00:38:08.071Z,13.40
2022-08-30T00:40:55.814Z,11.43
2022-08-30T00:43:43.334Z,13.87
2022-08-30T00:46:32.515Z,10.47
2022-08-30T00:49:19.674Z,12.20
2022-08-30T00:52:08.003Z,10.93
2022-08-30T00:54:54.992Z,11.33
2022-08-30T00:57:42.020Z,12.67
2022-08-30T01:00:29.560Z,10.40
2022-08-30T01:03:18.406Z,9.47
2022-08-30T01:06:09.359Z,10.63
2022-08-30T01:08:57.398Z,10.47
2022-08-30T01:11:46.024Z,10.20
2022-08-30T01:14:34.519Z,11.50
2022-08-30T01:17:23.215Z,11.00
2022-08-30T01:20:14.791Z,11.40
2022-08-30T01:23:12.543Z,10.43
2022-08-30T01:25:59.878Z,9.87
2022-08-30T01:28:49.567Z,10.37
2022-08-30T01:31:37.182Z,12.50
2022-08-30T01:34:25.635Z,11.80
2022-08-30T01:37:12.339Z,16.73
2022-08-30T01:40:01.381Z,9.30
2022-08-30T01:42:49.018Z,10.50
2022-08-30T01:45:36.266Z,11.33
2022-08-30T01:48:28.241Z,12.40
2022-08-30T01:51:18.370Z,12.23
2022-08-30T01:54:06.364Z,11.70
2022-08-30T01:56:54.525Z,12.47
2022-08-30T01:59:47.667Z,13.67
2022-08-30T02:02:34.754Z,10.20
2022-08-30T02:05:21.519Z,11.37
2022-08-30T02:08:09.130Z,10.87
2022-08-30T02:10:56.029Z,11.43
2022-08-30T02:13:46.080Z,11.03
2022-08-30T02:17:31.596Z,13.50
2022-08-30T02:20:18.500Z,10.73
2022-08-30T02:23:05.461Z,9.60
2022-08-30T02:25:52.345Z,11.47
2022-08-30T02:28:49.430Z,10.63
2022-08-30T02:31:38.625Z,11.63
2022-08-30T02:34:25.647Z,11.50
2022-08-30T02:37:12.719Z,11.03
2022-08-30T02:40:00.686Z,10.93
2022-08-30T02:42:47.562Z,13.27
2022-08-30T02:45:34.956Z,18.13
2022-08-30T02:48:23.174Z,13.00
2022-08-30T02:51:12.530Z,11.20
2022-08-30T02:53:59.491Z,10.90
2022-08-30T02:56:46.550Z,10.70
2022-08-30T02:59:34.097Z,11.07
2022-08-30T03:02:23.303Z,17.07
2022-08-30T03:05:14.319Z,9.57
2022-08-30T03:08:01.976Z,10.67
2022-08-30T03:10:48.540Z,11.03
2022-08-30T03:13:35.384Z,12.30
2022-08-30T03:16:23.015Z,10.03
2022-08-30T03:19:11.691Z,14.07
2022-08-30T03:22:00.370Z,10.87
2022-08-30T03:24:47.248Z,12.93
2022-08-30T03:27:34.337Z,9.27
2022-08-30T03:30:22.835Z,11.70
2022-08-30T03:33:09.701Z,12.13
2022-08-30T03:35:58.433Z,11.43
2022-08-30T03:38:46.692Z,10.60
2022-08-30T03:41:33.551Z,11.70
2022-08-30T03:44:20.718Z,9.93
2022-08-30T03:47:09.112Z,11.10
2022-08-30T03:49:55.929Z,10.53
2022-08-30T03:52:42.879Z,11.20
2022-08-30T03:55:31.443Z,15.97
2022-08-30T03:58:19.138Z,12.33
2022-08-30T04:01:06.361Z,13.10
2022-08-30T04:03:53.139Z,13.73
2022-08-30T04:06:40.392Z,10.83
2022-08-30T04:09:27.046Z,12.63
2022-08-30T04:12:16.049Z,11.83
2022-08-30T04:15:11.936Z,10.60
2022-08-30T04:17:58.765Z,10.53
2022-08-30T04:20:45.571Z,11.53
2022-08-30T04:23:32.580Z,16.73
2022-08-30T04:26:19.378Z,10.00
2022-08-30T04:29:07.915Z,16.30
2022-08-30T04:31:55.128Z,17.37
2022-08-30T04:34:42.343Z,13.07
2022-08-30T04:37:29.434Z,11.93
2022-08-30T04:40:17.014Z,11.57
2022-08-30T04:43:04.445Z,13.23
2022-08-30T04:45:52.716Z,11.80
2022-08-30T04:48:40.000Z,9.87
2022-08-30T04:51:26.899Z,10.70
2022-08-30T04:54:13.974Z,10.83
2022-08-30T04:57:00.937Z,10.97
2022-08-30T04:59:47.505Z,10.57
2022-08-30T05:02:36.403Z,10.10
2022-08-30T05:05:41.844Z,8.97
2022-08-30T05:08:28.467Z,10.93
2022-08-30T05:11:15.900Z,12.93
2022-08-30T05:14:02.498Z,10.40
2022-08-30T05:16:49.980Z,10.47
2022-08-30T05:19:38.390Z,11.03
2022-08-30T05:22:25.124Z,12.27
2022-08-30T05:25:14.720Z,9.43
2022-08-30T05:28:01.549Z,10.90
2022-08-30T05:30:48.465Z,11.40
2022-08-30T05:33:38.841Z,12.03
2022-08-30T05:36:30.139Z,12.07
2022-08-30T05:39:16.968Z,13.27
2022-08-30T05:42:08.070Z,12.07
2022-08-30T05:44:55.551Z,12.23
2022-08-30T05:47:42.815Z,13.07
2022-08-30T05:50:29.776Z,13.03
2022-08-30T05:53:18.163Z,13.83
2022-08-30T05:56:07.393Z,16.73
2022-08-30T05:58:55.136Z,11.67
2022-08-30T06:01:45.144Z,10.80
2022-08-30T06:04:32.769Z,8.93
2022-08-30T06:07:22.458Z,9.67
2022-08-30T06:10:12.478Z,9.37
2022-08-30T06:12:59.317Z,11.00
2022-08-30T06:15:47.220Z,12.77
2022-08-30T06:18:34.245Z,14.17
2022-08-30T06:21:23.644Z,12.63
2022-08-30T06:24:12.124Z,13.53
2022-08-30T06:27:00.689Z,15.70
2022-08-30T06:29:47.800Z,11.20
2022-08-30T06:32:34.574Z,11.27
2022-08-30T06:35:21.508Z,11.50
2022-08-30T06:38:08.444Z,11.57
2022-08-30T06:40:55.557Z,15.73
2022-08-30T06:43:48.690Z,11.87
2022-08-30T06:46:38.535Z,10.03
2022-08-30T06:49:25.959Z,12.25
2022-08-30T06:52:12.761Z,11.20
2022-08-30T06:54:59.701Z,9.27
2022-08-30T06:57:47.829Z,9.82
2022-08-30T07:00:36.396Z,10.10
2022-08-30T07:03:24.096Z,8.98
2022-08-30T07:06:11.984Z,8.88
2022-08-30T07:09:05.487Z,11.13
2022-08-30T07:12:03.418Z,9.63
2022-08-30T07:14:50.959Z,10.93
2022-08-30T07:17:57.350Z,9.50
2022-08-30T07:20:44.461Z,11.20
2022-08-30T07:23:31.171Z,10.02
2022-08-30T07:26:21.329Z,10.70
2022-08-30T07:29:09.344Z,9.95
2022-08-30T07:31:56.331Z,10.30
2022-08-30T07:34:44.888Z,9.30
2022-08-30T07:37:32.337Z,9.73
2022-08-30T07:40:19.623Z,9.45
2022-08-30T07:43:06.815Z,10.82
2022-08-30T07:45:53.964Z,8.82
2022-08-30T07:48:41.322Z,9.50
2022-08-30T07:51:33.185Z,8.45
2022-08-30T07:54:19.775Z,9.93
2022-08-30T07:57:06.958Z,9.75
2022-08-30T07:59:54.410Z,8.90
2022-08-30T08:02:42.538Z,10.13
2022-08-30T08:05:39.088Z,11.48
2022-08-30T08:08:34.335Z,10.60
2022-08-30T08:11:24.706Z,9.18
2022-08-30T08:14:11.995Z,9.43
2022-08-30T08:17:05.756Z,7.80
2022-08-30T08:19:59.127Z,8.55
2022-08-30T08:22:46.267Z,8.52
2022-08-30T08:25:35.478Z,9.38
2022-08-30T08:28:23.060Z,8.38
2022-08-30T08:31:16.314Z,6.88
2022-08-30T08:34:05.884Z,9.40
2022-08-30T08:36:53.807Z,8.75
2022-08-30T08:39:40.607Z,8.05
2022-08-30T08:42:40.715Z,7.22
2022-08-30T08:45:40.962Z,8.07
2022-08-30T08:48:51.742Z,7.68
2022-08-30T08:51:59.271Z,8.35
2022-08-30T08:54:52.705Z,6.20
2022-08-30T08:57:42.119Z,11.20
2022-08-30T09:00:30.078Z,7.90
2022-08-30T09:03:19.174Z,7.22
2022-08-30T09:06:21.386Z,7.05
2022-08-30T09:09:09.161Z,7.30
2022-08-30T09:11:56.141Z,6.85
2022-08-30T09:14:47.592Z,8.40
2022-08-30T09:17:52.223Z,6.43
2022-08-30T09:20:43.343Z,6.45
2022-08-30T09:23:32.448Z,7.00
2022-08-30T09:26:30.608Z,7.13
2022-08-30T09:29:18.836Z,6.40
2022-08-30T09:32:24.888Z,5.80
2022-08-30T09:35:20.521Z,5.55
2022-08-30T09:38:10.341Z,5.43
2022-08-30T09:40:59.429Z,5.50
2022-08-30T09:43:46.142Z,6.18
2022-08-30T09:46:46.640Z,6.13
2022-08-30T09:49:44.475Z,6.57
2022-08-30T09:52:43.012Z,6.25
2022-08-30T09:55:54.226Z,5.93
2022-08-30T09:58:57.661Z,8.32
2022-08-30T10:01:48.610Z,8.07
2022-08-30T10:04:45.676Z,7.57
2022-08-30T10:07:39.673Z,6.43
2022-08-30T10:10:33.712Z,5.28
2022-08-30T10:13:54.439Z,6.07
2022-08-30T10:16:51.039Z,11.57
2022-08-30T10:19:51.386Z,5.45
2022-08-30T10:22:43.270Z,6.90
2022-08-30T10:25:39.632Z,6.43
2022-08-30T10:28:31.033Z,7.18
2022-08-30T10:31:26.059Z,6.35
2022-08-30T10:34:18.846Z,5.78
2022-08-30T10:37:13.419Z,6.65
2022-08-30T10:40:26.069Z,6.18
2022-08-30T10:43:21.848Z,7.38
2022-08-30T10:46:17.287Z,6.10
2022-08-30T10:49:11.711Z,7.47
2022-08-30T10:52:07.089Z,7.25
2022-08-30T10:55:01.547Z,7.38
2022-08-30T10:57:48.650Z,5.35
2022-08-30T11:00:51.925Z,9.90
2022-08-30T11:04:18.566Z,7.10
2022-08-30T11:07:14.510Z,6.03
2022-08-30T11:10:33.738Z,8.07
2022-08-30T11:13:24.847Z,7.35
2022-08-30T11:16:15.856Z,5.30
2022-08-30T11:19:03.194Z,7.43
2022-08-30T11:21:51.119Z,7.18
2022-08-30T11:25:11.394Z,6.78
2022-08-30T11:28:00.258Z,6.68
2022-08-30T11:30:52.174Z,6.10
2022-08-30T11:33:46.438Z,7.25
2022-08-30T11:37:09.666Z,7.47
2022-08-30T11:40:02.054Z,6.25
2022-08-30T11:42:52.913Z,8.63
2022-08-30T11:45:55.703Z,6.68
2022-08-30T11:48:54.434Z,12.30
2022-08-30T11:52:26.387Z,7.50
2022-08-30T11:55:42.444Z,7.00
2022-08-30T11:58:48.121Z,6.82
2022-08-30T12:01:49.947Z,7.90
2022-08-30T12:04:46.650Z,6.63
2022-08-30T12:07:58.794Z,9.07
2022-08-30T12:10:48.528Z,6.78
2022-08-30T12:13:54.181Z,6.93
2022-08-30T12:17:00.784Z,7.88
2022-08-30T12:19:50.555Z,7.22
2022-08-30T12:22:38.048Z,10.73
2022-08-30T12:25:31.391Z,7.70
2022-08-30T12:28:24.028Z,6.32
2022-08-30T12:31:14.068Z,9.32
2022-08-30T12:34:04.223Z,9.00
2022-08-30T12:37:00.546Z,7.40
2022-08-30T12:39:53.718Z,8.00
2022-08-30T12:42:44.586Z,6.45
2022-08-30T12:45:35.095Z,9.55
2022-08-30T12:48:23.014Z,6.30
2022-08-30T12:51:28.688Z,8.05
2022-08-30T12:54:19.889Z,6.90
2022-08-30T12:57:25.316Z,7.57
2022-08-30T13:00:29.503Z,8.82
2022-08-30T13:03:30.922Z,6.50
2022-08-30T13:06:38.703Z,7.05
2022-08-30T13:09:32.555Z,7.97
2022-08-30T13:12:24.134Z,6.55
2022-08-30T13:15:14.508Z,7.40
2022-08-30T13:18:30.538Z,6.15
2022-08-30T13:21:25.132Z,8.88
2022-08-30T13:24:12.223Z,8.68
2022-08-30T13:27:09.635Z,6.25
2022-08-30T13:29:57.344Z,7.97
2022-08-30T13:32:45.253Z,7.25
2022-08-30T13:35:33.647Z,10.20
2022-08-30T13:38:22.065Z,7.45
2022-08-30T13:41:09.334Z,9.25
2022-08-30T13:44:14.066Z,5.53
2022-08-30T13:50:11.570Z,9.57
2022-08-30T13:53:12.107Z,9.50
2022-08-30T13:56:08.524Z,10.55
2022-08-30T13:59:02.902Z,9.23
2022-08-30T14:05:02.194Z,10.13
2022-08-30T14:07:50.247Z,10.10
2022-08-30T14:10:46.642Z,7.82
2022-08-30T14:13:35.643Z,8.63
2022-08-30T14:16:27.567Z,7.93
2022-08-30T14:19:16.395Z,8.75
2022-08-30T14:22:03.380Z,9.88
2022-08-30T14:24:50.740Z,8.90
2022-08-30T14:27:38.035Z,10.38
2022-08-30T14:30:28.040Z,8.77
2022-08-30T14:33:15.584Z,11.50
2022-08-30T14:36:02.624Z,9.05
2022-08-30T14:38:50.300Z,7.85
2022-08-30T14:41:43.630Z,7.95
2022-08-30T14:44:45.648Z,6.95
2022-08-30T14:47:39.614Z,8.70
2022-08-30T14:50:27.992Z,8.15
2022-08-30T14:53:27.930Z,7.20
2022-08-30T14:56:23.513Z,6.45
2022-08-30T14:59:13.517Z,8.93
2022-08-30T15:02:00.859Z,7.93
2022-08-30T15:04:50.594Z,10.10
2022-08-30T15:07:38.793Z,7.20
2022-08-30T15:10:26.654Z,8.20
2022-08-30T15:13:13.790Z,9.30
2022-08-30T15:16:01.123Z,10.85
2022-08-30T15:18:48.269Z,8.70
2022-08-30T15:21:39.086Z,8.93
2022-08-30T15:24:29.611Z,8.15
2022-08-30T15:27:17.371Z,6.50
2022-08-30T15:30:05.011Z,10.55
2022-08-30T15:32:53.117Z,7.75
2022-08-30T15:35:46.984Z,8.20
2022-08-30T15:38:42.404Z,7.75
2022-08-30T15:41:30.581Z,5.97
2022-08-30T15:44:17.749Z,7.70
2022-08-30T15:47:06.632Z,7.53
2022-08-30T15:49:57.146Z,7.25
2022-08-30T15:52:45.007Z,7.72
2022-08-30T15:55:33.450Z,7.43
2022-08-30T15:58:46.861Z,8.10
2022-08-30T16:01:42.013Z,7.18
2022-08-30T16:04:30.727Z,9.15
2022-08-30T16:07:18.113Z,8.88
2022-08-30T16:10:05.474Z,7.57
2022-08-30T16:12:53.596Z,8.52
2022-08-30T16:15:41.074Z,6.90
2022-08-30T16:18:27.959Z,7.38
2022-08-30T16:21:16.598Z,8.82
2022-08-30T16:24:05.021Z,7.53
2022-08-30T16:26:52.313Z,6.80
2022-08-30T16:29:40.224Z,6.38
2022-08-30T16:32:26.941Z,7.93
2022-08-30T16:35:14.063Z,10.88
2022-08-30T16:38:01.291Z,10.27
2022-08-30T16:40:49.399Z,9.07
2022-08-30T16:43:38.072Z,6.55
2022-08-30T16:46:28.111Z,11.45
2022-08-30T16:49:15.600Z,7.68
2022-08-30T16:52:03.689Z,8.70
2022-08-30T16:54:52.121Z,13.68
2022-08-30T16:57:41.181Z,9.05
2022-08-30T17:00:31.368Z,7.65
2022-08-30T17:03:21.134Z,10.75
2022-08-30T17:06:08.456Z,11.43
2022-08-30T17:08:56.019Z,9.40
2022-08-30T17:11:44.025Z,9.65
2022-08-30T17:14:32.156Z,10.15
2022-08-30T17:17:22.132Z,11.15
2022-08-30T17:20:11.789Z,8.57
2022-08-30T17:22:59.076Z,8.25
2022-08-30T17:25:49.753Z,7.97
2022-08-30T17:28:37.058Z,8.48
2022-08-30T17:31:24.692Z,8.18
2022-08-30T17:34:13.320Z,7.82
2022-08-30T17:37:02.400Z,8.52
2022-08-30T17:39:50.869Z,12.65
2022-08-30T17:42:38.236Z,8.35
2022-08-30T17:45:25.982Z,5.95
2022-08-30T17:48:13.792Z,9.05
2022-08-30T17:51:01.360Z,10.00
2022-08-30T17:53:49.725Z,10.23
2022-08-30T17:56:37.104Z,9.75
2022-08-30T17:59:25.721Z,9.02
2022-08-30T18:02:14.401Z,9.48
2022-08-30T18:05:01.820Z,7.43
2022-08-30T18:07:48.910Z,10.68
2022-08-30T18:10:37.237Z,7.60
2022-08-30T18:13:24.791Z,8.00
2022-08-30T18:16:12.290Z,9.47
2022-08-30T18:18:59.545Z,8.02
2022-08-30T18:21:47.303Z,7.95
2022-08-30T18:24:35.872Z,8.87
2022-08-30T18:27:24.412Z,10.27
2022-08-30T18:30:12.540Z,8.55
2022-08-30T18:32:59.626Z,6.95
2022-08-30T18:35:48.378Z,7.43
2022-08-30T18:38:35.941Z,9.80
2022-08-30T18:41:23.344Z,9.50
2022-08-30T18:44:27.391Z,9.43
2022-08-30T18:47:15.409Z,8.83
2022-08-30T18:50:03.082Z,6.67
2022-08-30T18:52:50.426Z,7.90
2022-08-30T18:55:38.375Z,8.93
2022-08-30T18:58:25.805Z,7.30
2022-08-30T19:01:16.425Z,11.17
2022-08-30T19:04:07.893Z,8.25
2022-08-30T19:06:54.977Z,8.47
2022-08-30T19:09:43.035Z,8.80
2022-08-30T19:12:30.530Z,8.27
2022-08-30T19:15:18.753Z,10.60
2022-08-30T19:18:17.234Z,8.90
2022-08-30T19:21:06.593Z,11.30
2022-08-30T19:24:00.744Z,9.50
2022-08-30T19:26:48.079Z,8.30
2022-08-30T19:29:35.522Z,10.67
2022-08-30T19:32:24.495Z,8.10
2022-08-30T19:35:14.821Z,10.17
2022-08-30T19:38:05.191Z,8.40
2022-08-30T19:40:54.789Z,8.30
2022-08-30T19:43:42.730Z,9.73
2022-08-30T19:46:29.976Z,8.90
2022-08-30T19:49:20.724Z,7.77
2022-08-30T19:52:10.494Z,7.47
2022-08-30T19:54:58.678Z,7.27
2022-08-30T19:57:45.650Z,8.73
2022-08-30T20:00:36.476Z,7.23
2022-08-30T20:03:30.344Z,8.50
2022-08-30T20:06:18.527Z,8.70
2022-08-30T20:09:10.575Z,8.97
2022-08-30T20:11:59.100Z,8.37
2022-08-30T20:14:47.182Z,8.77
2022-08-30T20:18:02.031Z,8.77
2022-08-30T20:20:41.942Z,7.53
2022-08-30T20:23:37.128Z,7.47
2022-08-30T20:26:34.012Z,7.63
2022-08-30T20:29:21.770Z,9.63
2022-08-30T20:32:09.623Z,8.03
2022-08-30T20:34:56.534Z,8.57
2022-08-30T20:37:44.496Z,7.30
2022-08-30T20:40:31.854Z,12.00
2022-08-30T20:43:21.129Z,7.47
2022-08-30T20:46:12.260Z,6.90
2022-08-30T20:49:01.475Z,10.30
2022-08-30T20:51:54.204Z,8.73
2022-08-30T20:54:41.677Z,7.10
2022-08-30T20:57:28.826Z,11.17
2022-08-30T21:00:18.155Z,7.60
2022-08-30T21:03:11.470Z,8.93
2022-08-30T21:06:13.602Z,8.57
2022-08-30T21:09:00.528Z,8.77
2022-08-30T21:11:48.013Z,6.73
2022-08-30T21:14:35.236Z,7.87
2022-08-30T21:17:24.217Z,7.33
2022-08-30T21:20:12.056Z,8.37
2022-08-30T21:22:59.145Z,8.37
2022-08-30T21:25:46.006Z,7.20
2022-08-30T21:28:33.305Z,6.53
2022-08-30T21:31:22.824Z,13.00
2022-08-30T21:34:15.886Z,7.47
2022-08-30T21:37:03.525Z,8.70
2022-08-30T21:39:50.741Z,9.70
2022-08-30T21:42:39.869Z,7.97
2022-08-30T21:45:27.091Z,8.37
2022-08-30T21:48:15.094Z,7.77
2022-08-30T21:51:08.027Z,8.67
2022-08-30T21:53:55.519Z,9.13
2022-08-30T21:56:46.025Z,8.73
2022-08-30T21:59:33.939Z,7.50
2022-08-30T22:02:21.394Z,7.70
2022-08-30T22:05:09.357Z,8.97
2022-08-30T22:08:03.400Z,8.73
2022-08-30T22:10:50.393Z,9.07
2022-08-30T22:13:38.478Z,10.17
2022-08-30T22:16:27.501Z,7.87
2022-08-30T22:19:15.718Z,9.67
2022-08-30T22:22:06.655Z,7.50
2022-08-30T22:24:54.818Z,7.13
2022-08-30T22:27:42.092Z,7.67
2022-08-30T22:30:29.068Z,8.33
2022-08-30T22:33:18.537Z,6.77
2022-08-30T22:36:10.091Z,9.03
2022-08-30T22:38:58.928Z,8.03
2022-08-30T22:41:47.572Z,8.00
2022-08-30T22:44:34.954Z,7.50
2022-08-30T22:47:21.937Z,5.57
2022-08-30T22:50:09.402Z,5.83
2022-08-30T22:52:56.616Z,5.67
2022-08-30T22:55:43.602Z,8.90
2022-08-30T22:58:32.010Z,7.43
2022-08-30T23:01:22.025Z,8.73
2022-08-30T23:04:09.929Z,7.47
2022-08-30T23:06:56.976Z,8.80
2022-08-30T23:09:43.964Z,8.13
2022-08-30T23:12:31.399Z,8.50
2022-08-30T23:15:19.737Z,8.57
2022-08-30T23:18:06.630Z,8.97
2022-08-30T23:20:53.739Z,8.07
2022-08-30T23:23:58.800Z,7.90
2022-08-30T23:27:04.981Z,7.00
2022-08-30T23:30:09.426Z,9.07
2022-08-30T23:33:15.382Z,9.77
2022-08-30T23:36:26.159Z,10.33
2022-08-30T23:39:30.836Z,7.97
2022-08-30T23:42:35.498Z,11.90
2022-08-30T23:45:40.084Z,8.17
2022-08-30T23:48:50.027Z,9.27
2022-08-30T23:51:56.972Z,8.47
2022-08-30T23:55:01.875Z,9.03
2022-08-30T23:58:07.272Z,8.83
